Time;durP1;ratioP1;P1;durP2;ratioP2;P2;SDS_P1;SDS_P2;PMS_P1;PMS_P2;Temp;Humidity;BMP_temperature;BMP_pressure;BME280_temperature;BME280_humidity;BME280_pressure;Samples;Min_cycle;Max_cycle;Signal;HPM_P1;HPM_P2
2022/04/22 00:00:19;;;;;;;10.48;6.03;;;;;;;;;;5095693;28;20098;-61
2022/04/22 00:02:45;;;;;;;10.60;5.25;;;;;;;;;;5095241;28;20040;-60
2022/04/22 00:05:11;;;;;;;15.07;7.32;;;;;;;;;;5094849;28;20052;-60
2022/04/22 00:07:38;;;;;;;9.45;5.57;;;;;;;;;;5094367;28;20477;-60
2022/04/22 00:10:05;;;;;;;9.43;5.85;;;;;;;;;;5093843;28;20056;-60
2022/04/22 00:12:32;;;;;;;9.75;5.68;;;;;;;;;;5094420;28;20525;-60
2022/04/22 00:14:58;;;;;;;12.45;6.65;;;;;;;;;;5095364;28;20481;-60
2022/04/22 00:17:24;;;;;;;12.98;5.88;;;;;;;;;;5094289;28;20055;-60
2022/04/22 00:19:50;;;;;;;10.68;5.63;;;;;;;;;;5094210;28;20543;-60
2022/04/22 00:22:16;;;;;;;16.30;5.50;;;;;;;;;;5093333;28;20036;-60
2022/04/22 00:24:42;;;;;;;10.75;5.72;;;;;;;;;;5094102;28;20051;-60
2022/04/22 00:27:08;;;;;;;11.45;5.28;;;;;;;;;;5094295;28;20495;-60
2022/04/22 00:29:33;;;;;;;12.23;5.10;;;10.50;99.90;;;;;;5093138;28;20040;-61
2022/04/22 00:31:59;;;;;;;10.77;5.45;;;10.30;99.90;;;;;;5095759;28;20130;-61
2022/04/22 00:34:25;;;;;;;10.23;5.70;;;10.40;99.90;;;;;;5095290;28;20442;-59
2022/04/22 00:36:50;;;;;;;12.15;6.60;;;11.40;99.90;;;;;;5076544;28;20044;-59
2022/04/22 00:39:16;;;;;;;9.15;5.43;;;10.30;99.90;;;;;;5095238;28;20040;-59
2022/04/22 00:41:42;;;;;;;11.35;6.43;;;9.90;99.90;;;;;;5095100;28;20047;-60
2022/04/22 00:44:08;;;;;;;13.55;7.55;;;9.90;99.90;;;;;;5094760;28;20055;-59
2022/04/22 00:46:34;;;;;;;10.27;6.03;;;10.00;99.90;;;;;;5095070;28;20032;-59
2022/04/22 00:49:00;;;;;;;11.57;5.65;;;11.40;99.90;;;;;;5094027;28;20396;-60
2022/04/22 00:51:25;;;;;;;9.82;5.75;;;9.50;99.90;;;;;;5092968;28;20064;-60
2022/04/22 00:53:52;;;;;;;13.35;6.38;;;9.90;99.90;;;;;;5093676;28;20032;-59
2022/04/22 00:56:19;;;;;;;11.80;7.35;;;9.60;99.90;;;;;;5094771;28;20039;-59
2022/04/22 00:58:47;;;;;;;11.93;6.25;;;9.30;99.90;;;;;;5093978;28;20036;-59
2022/04/22 01:01:13;;;;;;;9.13;5.57;;;9.70;99.90;;;;;;5093728;28;20046;-59
2022/04/22 01:09:46;;;;;;;9.25;5.40;;;9.70;99.90;;;;;;5094704;28;20076;-59
2022/04/22 01:09:51;;;;;;;12.23;6.10;;;9.30;99.90;;;;;;5031464;28;20415;-59
2022/04/22 01:12:18;;;;;;;10.32;5.85;;;9.90;99.90;;;;;;5031479;28;20518;-61
2022/04/22 01:14:44;;;;;;;13.02;6.07;;;9.60;99.90;;;;;;5069333;28;20052;-59
2022/04/22 01:17:10;;;;;;;14.15;7.38;;;9.70;99.90;;;;;;5093370;28;20040;-62
2022/04/22 01:19:36;;;;;;;10.55;6.10;;;9.80;99.90;;;;;;5108996;28;20496;-62
2022/04/22 01:22:02;;;;;;;11.75;6.60;;;10.70;99.90;;;;;;5093598;28;20036;-60
2022/04/22 01:24:28;;;;;;;13.93;6.60;;;9.80;99.90;;;;;;5094140;28;20036;-59
2022/04/22 01:26:55;;;;;;;12.55;6.15;;;9.60;99.90;;;;;;5093282;28;20043;-59
2022/04/22 01:29:26;;;;;;;14.13;5.93;;;9.40;99.90;;;;;;5093100;28;20043;-59
2022/04/22 01:31:53;;;;;;;12.75;6.53;;;9.40;99.90;;;;;;5092715;28;20046;-59
2022/04/22 01:34:18;;;;;;;10.30;6.45;;;9.60;99.90;;;;;;5093264;28;20040;-58
2022/04/22 01:36:44;;;;;;;12.00;5.43;;;9.60;99.90;;;;;;5094031;28;20119;-58
2022/04/22 01:39:09;;;;;;;11.30;6.32;;;9.60;99.90;;;;;;5094341;28;20044;-58
2022/04/22 01:41:35;;;;;;;13.55;6.43;;;;;;;;;;5108772;28;20072;-58
2022/04/22 01:44:01;;;;;;;10.57;6.28;;;9.50;99.90;;;;;;5094221;28;20463;-59
2022/04/22 01:46:27;;;;;;;10.70;6.30;;;9.30;99.90;;;;;;5093065;28;20038;-60
2022/04/22 01:48:53;;;;;;;13.73;6.32;;;9.60;99.90;;;;;;5092613;28;20366;-60
2022/04/22 01:51:19;;;;;;;13.50;7.18;;;9.70;99.90;;;;;;5109618;28;20384;-61
2022/04/22 01:53:44;;;;;;;17.48;7.70;;;9.40;99.90;;;;;;5093068;28;20047;-61
2022/04/22 01:56:10;;;;;;;9.43;5.55;;;9.90;99.90;;;;;;5093959;28;20040;-61
2022/04/22 01:58:36;;;;;;;10.18;6.28;;;9.80;99.90;;;;;;5092434;28;20082;-61
2022/04/22 02:01:02;;;;;;;12.82;6.65;;;;;;;;;;5093015;28;20040;-60
2022/04/22 02:03:27;;;;;;;11.48;5.70;;;9.40;99.90;;;;;;5093416;28;20430;-61
2022/04/22 02:05:53;;;;;;;10.48;7.10;;;;;;;;;;5093619;28;20025;-61
2022/04/22 02:08:21;;;;;;;10.35;5.80;;;;;;;;;;5092536;28;20051;-61
2022/04/22 02:10:47;;;;;;;16.88;6.75;;;;;;;;;;5091906;28;20044;-61
2022/04/22 02:13:13;;;;;;;19.50;6.15;;;;;;;;;;5075324;28;20036;-61
2022/04/22 02:15:39;;;;;;;9.10;5.32;;;;;;;;;;5092511;28;20046;-62
2022/04/22 02:18:05;;;;;;;16.85;7.40;;;;;;;;;;5092180;28;20036;-60
2022/04/22 02:20:31;;;;;;;8.20;5.85;;;;;;;;;;5092823;28;20476;-60
2022/04/22 02:22:57;;;;;;;13.90;7.28;;;;;;;;;;5092783;28;20115;-60
2022/04/22 02:25:23;;;;;;;9.27;5.57;;;;;;;;;;5091845;28;20142;-60
2022/04/22 02:30:34;;;;;;;16.58;6.10;;;;;;;;;;5092205;28;20050;-61
2022/04/22 02:33:00;;;;;;;10.05;5.80;;;;;;;;;;5093458;28;20036;-60
2022/04/22 02:35:26;;;;;;;10.75;5.72;;;;;;;;;;5091703;28;20055;-60
2022/04/22 02:37:55;;;;;;;9.40;5.95;;;;;;;;;;5090640;28;20043;-63
2022/04/22 02:45:52;;;;;;;9.82;5.70;;;;;;;;;;5092937;28;20075;-60
2022/04/22 02:48:18;;;;;;;10.98;5.97;;;;;;;;;;5091416;28;20055;-61
2022/04/22 02:50:44;;;;;;;12.85;5.75;;;;;;;;;;5092003;28;20048;-62
2022/04/22 02:53:10;;;;;;;10.90;6.03;;;;;;;;;;5092693;28;20471;-61
2022/04/22 02:55:38;;;;;;;12.57;5.72;;;;;;;;;;5092553;28;20040;-60
2022/04/22 02:58:04;;;;;;;9.32;5.93;;;;;;;;;;5074274;28;20388;-60
2022/04/22 03:00:30;;;;;;;10.60;6.13;;;;;;;;;;5091052;28;20063;-60
2022/04/22 03:02:56;;;;;;;10.43;4.78;;;;;;;;;;5092859;28;20447;-62
2022/04/22 03:05:22;;;;;;;9.98;5.18;;;;;;;;;;5091684;28;20048;-62
2022/04/22 03:07:48;;;;;;;9.38;5.13;;;;;;;;;;5092354;28;20043;-62
2022/04/22 03:10:14;;;;;;;10.93;5.28;;;;;;;;;;5090991;28;20047;-62
2022/04/22 03:12:42;;;;;;;11.52;5.75;;;;;;;;;;5090474;28;20040;-62
2022/04/22 03:15:08;;;;;;;10.48;5.47;;;;;;;;;;5092718;28;20122;-61
2022/04/22 03:17:34;;;;;;;11.23;5.15;;;;;;;;;;5090834;28;20047;-61
2022/04/22 03:20:00;;;;;;;11.13;5.95;;;;;;;;;;5091749;28;20040;-61
2022/04/22 03:22:26;;;;;;;10.65;5.15;;;;;;;;;;5091247;28;20374;-61
2022/04/22 03:24:52;;;;;;;11.82;5.20;;;;;;;;;;5091809;28;20047;-60
2022/04/22 03:27:18;;;;;;;13.25;5.13;;;;;;;;;;5092198;28;20043;-60
2022/04/22 03:29:44;;;;;;;9.13;4.63;;;;;;;;;;5092125;28;20039;-60
2022/04/22 03:32:11;;;;;;;11.57;5.50;;;;;;;;;;5090361;28;20044;-60
2022/04/22 03:34:37;;;;;;;12.65;5.15;;;;;;;;;;5073733;28;20089;-60
2022/04/22 03:37:03;;;;;;;10.32;4.60;;;;;;;;;;5092182;28;20086;-60
2022/04/22 03:39:29;;;;;;;10.13;4.63;;;;;;;;;;5090048;28;20131;-60
2022/04/22 03:41:55;;;;;;;8.45;4.10;;;;;;;;;;5091323;28;20463;-60
2022/04/22 03:44:21;;;;;;;8.23;4.90;;;;;;;;;;5073806;28;20084;-60
2022/04/22 03:46:47;;;;;;;11.52;5.40;;;;;;;;;;5091191;28;20172;-60
2022/04/22 03:49:13;;;;;;;10.73;5.70;;;;;;;;;;5090584;28;20040;-60
2022/04/22 03:51:38;;;;;;;8.20;4.78;;;8.00;99.90;;;;;;5091765;28;20047;-60
2022/04/22 03:54:04;;;;;;;9.38;4.40;;;9.80;99.90;;;;;;5091570;28;20040;-60
2022/04/22 03:59:14;;;;;;;9.25;5.15;;;8.10;99.90;;;;;;5092030;28;20396;-59
2022/04/22 04:01:39;;;;;;;8.57;5.00;;;7.60;99.90;;;;;;5090143;28;20119;-60
2022/04/22 04:04:05;;;;;;;8.88;5.35;;;8.00;99.90;;;;;;5091910;28;20048;-59
2022/04/22 04:06:31;;;;;;;11.80;4.70;;;8.10;99.90;;;;;;5107021;28;20485;-59
2022/04/22 04:17:09;;;;;;;9.15;4.25;;;8.10;99.90;;;;;;5092119;28;20044;-60
2022/04/22 04:25:03;;;;;;;7.10;4.10;;;8.20;99.90;;;;;;5091955;28;20051;-60
2022/04/22 04:27:29;;;;;;;10.60;5.28;;;8.20;99.90;;;;;;5090376;28;20036;-59
2022/04/22 04:29:55;;;;;;;9.23;4.20;;;8.20;99.90;;;;;;5091245;28;20082;-59
2022/04/22 04:32:21;;;;;;;10.27;4.55;;;7.90;99.90;;;;;;5090307;28;20036;-60
2022/04/22 04:34:47;;;;;;;7.75;4.45;;;8.10;99.90;;;;;;5094332;28;20449;-60
2022/04/22 04:37:12;;;;;;;8.73;4.50;;;7.70;99.90;;;;;;5094466;28;20036;-60
2022/04/22 04:39:39;;;;;;;8.27;4.15;;;7.90;99.90;;;;;;5095146;28;20507;-61
2022/04/22 04:42:05;;;;;;;10.25;4.35;;;8.10;99.90;;;;;;5094472;28;20506;-61
2022/04/22 04:44:31;;;;;;;9.98;4.50;;;7.90;99.90;;;;;;5094085;28;20768;-61
2022/04/22 04:46:56;;;;;;;9.57;4.05;;;7.80;99.90;;;;;;5094168;28;20049;-60
2022/04/22 04:49:22;;;;;;;13.43;6.70;;;7.50;99.90;;;;;;5092964;28;20040;-60
2022/04/22 04:51:48;;;;;;;13.70;5.90;;;7.70;99.90;;;;;;5094877;28;20040;-60
2022/04/22 04:54:13;;;;;;;10.93;6.05;;;7.70;99.90;;;;;;5110753;28;20100;-60
2022/04/22 04:56:39;;;;;;;11.27;6.45;;;8.00;99.90;;;;;;5094004;28;20074;-60
2022/04/22 04:59:04;;;;;;;7.53;4.25;;;8.00;99.90;;;;;;5110881;28;20071;-60
2022/04/22 05:01:30;;;;;;;9.82;7.13;;;7.90;99.90;;;;;;5093187;28;20048;-61
2022/04/22 05:03:55;;;;;;;11.57;5.97;;;8.00;99.90;;;;;;5109815;28;20058;-61
2022/04/22 05:06:21;;;;;;;9.57;4.78;;;7.90;99.90;;;;;;5094543;28;20043;-60
2022/04/22 05:08:47;;;;;;;6.45;3.88;;;7.90;99.90;;;;;;5110397;28;20050;-60
2022/04/22 05:11:12;;;;;;;7.65;3.53;;;8.10;99.90;;;;;;5092493;28;20062;-60
2022/04/22 05:13:38;;;;;;;7.05;3.53;;;;;;;;;;5094611;28;20136;-60
2022/04/22 05:16:04;;;;;;;15.55;4.40;;;7.90;99.90;;;;;;5093723;28;20050;-61
2022/04/22 05:18:30;;;;;;;8.10;4.15;;;7.90;99.90;;;;;;5092026;28;20047;-61
2022/04/22 05:20:56;;;;;;;6.25;3.22;;;8.10;99.90;;;;;;5094699;28;20095;-59
2022/04/22 05:23:22;;;;;;;7.85;3.47;;;8.00;99.90;;;;;;5110259;28;20044;-60
2022/04/22 05:25:48;;;;;;;8.05;3.45;;;8.00;99.90;;;;;;5092419;28;20066;-60
2022/04/22 05:28:14;;;;;;;6.65;3.22;;;8.10;99.90;;;;;;5094295;28;20481;-61
2022/04/22 05:33:24;;;;;;;16.33;6.30;;;;;;;;;;5092089;28;20048;-60
2022/04/22 05:35:50;;;;;;;7.53;3.70;;;8.10;99.90;;;;;;5092825;28;20392;-60
2022/04/22 05:38:17;;;;;;;6.40;3.42;;;8.00;99.90;;;;;;5093163;28;20047;-60
2022/04/22 05:40:46;;;;;;;7.32;3.78;;;8.60;99.90;;;;;;5093493;28;20106;-59
2022/04/22 05:43:12;;;;;;;9.30;4.00;;;;;;;;;;5094003;28;20044;-59
2022/04/22 05:45:38;;;;;;;8.68;4.25;;;8.20;99.90;;;;;;5092160;28;20457;-59
2022/04/22 05:48:03;;;;;;;6.18;2.90;;;8.10;99.90;;;;;;5093982;28;20115;-59
2022/04/22 05:50:29;;;;;;;6.10;3.08;;;8.40;99.90;;;;;;5093858;28;20113;-59
2022/04/22 05:52:56;;;;;;;11.48;3.58;;;8.60;99.90;;;;;;5091897;28;20075;-59
2022/04/22 05:55:23;;;;;;;8.38;3.22;;;;;;;;;;5093799;28;20043;-59
2022/04/22 05:57:50;;;;;;;5.95;2.50;;;;;;;;;;5092471;28;20484;-60
2022/04/22 06:00:18;;;;;;;7.68;2.60;;;;;;;;;;5091672;28;20048;-60
2022/04/22 06:02:44;;;;;;;7.63;2.72;;;;;;;;;;5093410;28;20485;-59
2022/04/22 06:05:11;;;;;;;5.90;2.63;;;;;;;;;;5092597;28;20043;-59
2022/04/22 06:07:37;;;;;;;7.32;3.05;;;;;;;;;;5092783;28;20088;-59
2022/04/22 06:12:49;;;;;;;6.07;2.40;;;;;;;;;;5093476;28;20040;-60
2022/04/22 06:15:15;;;;;;;5.35;2.33;;;;;;;;;;5092344;28;20036;-60
2022/04/22 06:17:41;;;;;;;7.13;3.10;;;;;;;;;;5093536;28;20161;-61
2022/04/22 06:20:08;;;;;;;5.85;2.75;;;;;;;;;;5093981;28;20076;-60
2022/04/22 06:22:34;;;;;;;8.85;2.80;;;;;;;;;;5092245;28;20051;-61
2022/04/22 06:24:59;;;;;;;6.47;3.30;;;10.30;99.90;;;;;;5092346;28;20048;-60
2022/04/22 06:27:27;;;;;;;6.75;2.63;;;9.50;99.90;;;;;;5092128;28;20389;-59
2022/04/22 06:29:54;;;;;;;7.80;3.13;;;11.00;99.90;;;;;;5091978;28;20565;-60
2022/04/22 06:32:22;;;;;;;6.18;2.40;;;9.50;99.90;;;;;;5092046;28;20089;-59
2022/04/22 06:34:49;;;;;;;4.68;2.10;;;9.60;99.90;;;;;;5091222;28;20115;-61
2022/04/22 06:37:15;;;;;;;10.43;2.80;;;9.60;99.90;;;;;;5093039;28;20050;-60
2022/04/22 06:47:55;;;;;;;5.80;2.88;;;;;;;;;;5091864;28;20506;-61
2022/04/22 06:50:21;;;;;;;6.95;2.28;;;;;;;;;;5091947;28;20047;-61
2022/04/22 06:52:47;;;;;;;4.53;2.22;;;;;;;;;;5092496;28;20044;-62
2022/04/22 06:55:19;;;;;;;6.85;2.60;;;;;;;;;;5092523;28;20048;-61
2022/04/22 06:57:50;;;;;;;7.05;2.70;;;;;;;;;;5091788;28;20032;-62
2022/04/22 07:00:19;;;;;;;7.10;2.70;;;;;;;;;;5091108;28;20052;-60
2022/04/22 07:02:48;;;;;;;4.82;2.38;;;;;;;;;;5091599;28;20151;-61
2022/04/22 07:05:14;;;;;;;5.95;2.53;;;;;;;;;;5087495;28;20044;-59
2022/04/22 07:07:41;;;;;;;6.43;2.58;;;;;;;;;;5069539;28;20040;-61
2022/04/22 07:10:07;;;;;;;5.88;2.30;;;;;;;;;;5078442;28;20050;-60
2022/04/22 07:12:33;;;;;;;4.80;2.25;;;;;;;;;;5088591;28;20485;-61
2022/04/22 07:15:03;;;;;;;6.13;2.30;;;;;;;;;;5088500;28;20052;-60
2022/04/22 07:17:34;;;;;;;4.53;1.90;;;;;;;;;;5087570;28;20047;-60
2022/04/22 07:20:05;;;;;;;4.78;2.05;;;;;;;;;;5089644;28;20040;-59
2022/04/22 07:22:32;;;;;;;6.47;2.67;;;;;;;;;;5089125;28;20598;-60
2022/04/22 07:24:58;;;;;;;6.78;2.42;;;;;;;;;;5088145;28;20038;-61
2022/04/22 07:27:26;;;;;;;5.82;2.33;;;;;;;;;;5087820;28;20043;-60
2022/04/22 07:29:52;;;;;;;6.68;2.92;;;;;;;;;;5086733;28;20036;-60
2022/04/22 07:32:18;;;;;;;6.38;2.35;;;;;;;;;;5086332;28;20473;-60
2022/04/22 07:34:44;;;;;;;6.57;2.53;;;;;;;;;;5088046;28;20044;-60
2022/04/22 07:37:10;;;;;;;5.78;1.90;;;;;;;;;;5090392;28;20040;-60
2022/04/22 07:39:38;;;;;;;6.20;2.78;;;;;;;;;;5087663;28;20047;-60
2022/04/22 07:42:07;;;;;;;4.70;2.15;;;;;;;;;;5089378;28;20054;-60
2022/04/22 07:47:22;;;;;;;5.60;2.63;;;;;;;;;;5089269;28;20047;-60
2022/04/22 07:49:50;;;;;;;8.00;2.38;;;;;;;;;;5088134;28;20500;-61
2022/04/22 07:52:16;;;;;;;6.45;2.75;;;;;;;;;;5088620;28;20493;-61
2022/04/22 07:54:42;;;;;;;7.18;2.15;;;;;;;;;;5071053;28;20054;-60
2022/04/22 07:57:10;;;;;;;8.23;2.75;;;;;;;;;;5088333;28;20059;-62
2022/04/22 07:59:36;;;;;;;6.00;2.80;;;;;;;;;;5088716;28;20052;-60
2022/04/22 08:02:03;;;;;;;6.32;2.70;;;;;;;;;;5085382;28;20082;-61
2022/04/22 08:04:30;;;;;;;6.28;3.00;;;;;;;;;;5086677;28;20087;-60
2022/04/22 08:06:56;;;;;;;7.05;2.08;;;;;;;;;;5103243;28;20115;-60
2022/04/22 08:09:22;;;;;;;5.25;2.72;;;;;;;;;;5089165;28;20105;-61
2022/04/22 08:11:48;;;;;;;5.75;2.53;;;;;;;;;;5093695;28;20047;-61
2022/04/22 08:14:15;;;;;;;6.95;2.65;;;;;;;;;;5094679;28;20040;-61
2022/04/22 08:16:41;;;;;;;6.07;2.92;;;;;;;;;;5096259;28;20047;-61
2022/04/22 08:19:07;;;;;;;7.97;2.85;;;;;;;;;;5093154;28;20044;-60
2022/04/22 08:21:33;;;;;;;7.57;3.05;;;;;;;;;;5093759;28;20047;-61
2022/04/22 08:24:00;;;;;;;6.82;2.75;;;;;;;;;;5093936;28;20404;-61
2022/04/22 08:26:25;;;;;;;6.15;2.60;;;12.10;99.90;;;;;;5094220;28;20078;-61
2022/04/22 08:28:51;;;;;;;8.13;3.25;;;;;;;;;;5093403;28;20425;-61
2022/04/22 08:31:17;;;;;;;7.70;2.90;;;12.20;99.90;;;;;;5094913;28;20115;-61
2022/04/22 08:33:48;;;;;;;8.13;2.53;;;;;;;;;;5092789;28;20040;-61
2022/04/22 08:36:14;;;;;;;6.53;2.80;;;;;;;;;;5084146;28;20048;-61
2022/04/22 08:38:40;;;;;;;7.07;3.00;;;12.90;99.90;;;;;;5091403;28;20044;-62
2022/04/22 08:41:09;;;;;;;5.38;2.60;;;12.40;99.90;;;;;;5098195;28;20058;-62
2022/04/22 08:43:35;;;;;;;5.88;3.30;;;;;;;;;;5090321;28;20056;-62
2022/04/22 08:46:01;;;;;;;5.30;2.50;;;12.80;99.90;;;;;;5104103;28;20048;-62
2022/04/22 08:51:14;;;;;;;4.93;2.22;;;13.10;99.90;;;;;;5084184;28;20067;-61
2022/04/22 08:53:43;;;;;;;6.95;2.55;;;13.00;99.90;;;;;;5091647;28;20103;-61
2022/04/22 08:56:10;;;;;;;8.50;3.63;;;12.90;99.90;;;;;;5093242;28;20044;-61
2022/04/22 08:58:36;;;;;;;7.38;3.70;;;13.70;99.90;;;;;;5093194;28;20048;-62
2022/04/22 09:01:02;;;;;;;5.30;2.50;;;13.20;99.90;;;;;;5092839;28;20047;-63
2022/04/22 09:03:28;;;;;;;6.95;2.85;;;13.70;99.90;;;;;;5092003;28;20086;-62
2022/04/22 09:05:59;;;;;;;7.10;3.33;;;13.70;99.90;;;;;;5092853;28;20036;-63
2022/04/22 09:08:26;;;;;;;6.20;2.53;;;13.90;99.90;;;;;;5092764;28;20052;-62
2022/04/22 09:10:53;;;;;;;8.73;3.03;;;13.80;99.90;;;;;;5092704;28;20044;-63
2022/04/22 09:13:26;;;;;;;4.88;2.15;;;13.50;99.90;;;;;;5094716;28;20173;-61
2022/04/22 09:15:52;;;;;;;6.38;2.42;;;13.80;99.90;;;;;;5076407;28;20036;-60
2022/04/22 09:18:18;;;;;;;6.30;2.80;;;13.30;99.90;;;;;;5091653;28;20039;-60
2022/04/22 09:20:47;;;;;;;8.32;3.00;;;13.40;99.90;;;;;;5091813;28;20036;-60
2022/04/22 09:23:31;;;;;;;8.80;2.75;;;13.80;99.90;;;;;;5094525;28;20111;-60
2022/04/22 09:25:58;;;;;;;13.23;3.20;;;13.60;99.90;;;;;;5092981;28;20112;-60
2022/04/22 09:28:23;;;;;;;8.85;2.90;;;13.80;99.90;;;;;;5094607;28;20093;-61
2022/04/22 09:30:59;;;;;;;6.00;2.50;;;13.90;99.90;;;;;;5093890;28;21018;-61
2022/04/22 09:33:25;;;;;;;5.72;2.50;;;13.70;99.90;;;;;;5092969;28;20069;-61
2022/04/22 09:44:54;;;;;;;7.50;3.70;;;13.90;99.90;;;;;;5105590;28;20127;-61
2022/04/22 09:47:20;;;;;;;6.47;2.67;;;14.40;99.90;;;;;;5074090;28;20116;-61
2022/04/22 09:49:46;;;;;;;6.57;2.90;;;;;;;;;;5090329;28;20177;-62
2022/04/22 09:52:12;;;;;;;5.60;2.63;;;14.20;99.90;;;;;;5091830;28;20048;-61
2022/04/22 09:54:38;;;;;;;8.80;2.67;;;14.10;99.90;;;;;;5092704;28;20078;-62
2022/04/22 09:57:04;;;;;;;5.68;2.75;;;14.50;99.90;;;;;;5094105;28;20374;-63
2022/04/22 09:59:32;;;;;;;5.38;2.92;;;14.30;99.90;;;;;;5092229;28;20079;-62
2022/04/22 10:02:00;;;;;;;5.78;3.25;;;14.10;99.90;;;;;;5093851;28;20043;-62
2022/04/22 10:04:28;;;;;;;9.48;3.22;;;14.50;99.90;;;;;;5093606;28;20373;-63
2022/04/22 10:06:55;;;;;;;7.88;3.55;;;14.30;99.90;;;;;;5091406;28;20361;-64
2022/04/22 10:09:22;;;;;;;7.00;3.50;;;14.50;99.90;;;;;;5092048;28;20179;-62
2022/04/22 10:11:48;;;;;;;8.52;3.05;;;;;;;;;;5093281;28;20032;-61
2022/04/22 10:14:19;;;;;;;11.13;3.22;;;14.60;99.90;;;;;;5091447;28;20048;-62
2022/04/22 10:16:45;;;;;;;9.27;3.90;;;14.20;99.90;;;;;;5093079;28;20036;-62
2022/04/22 10:19:12;;;;;;;7.20;3.38;;;14.10;99.90;;;;;;5093325;28;20155;-61
2022/04/22 10:21:39;;;;;;;7.05;3.30;;;14.30;99.90;;;;;;5092309;28;20040;-62
2022/04/22 10:24:05;;;;;;;10.05;3.33;;;14.30;99.90;;;;;;5093577;28;20093;-62
2022/04/22 10:26:31;;;;;;;6.13;2.88;;;14.40;99.90;;;;;;5091427;28;20036;-61
2022/04/22 10:28:57;;;;;;;6.28;3.45;;;14.10;99.90;;;;;;5091433;28;20047;-60
2022/04/22 10:31:23;;;;;;;9.73;3.17;;;14.20;99.90;;;;;;5091252;28;20040;-62
2022/04/22 10:33:49;;;;;;;7.18;3.28;;;14.40;99.90;;;;;;5093315;28;20104;-62
2022/04/22 10:36:17;;;;;;;9.13;3.80;;;14.30;99.90;;;;;;5090891;28;20044;-61
2022/04/22 10:38:48;;;;;;;8.35;4.13;;;14.10;99.90;;;;;;5091466;28;20051;-61
2022/04/22 10:41:19;;;;;;;7.43;4.20;;;13.80;99.90;;;;;;5091394;28;20036;-61
2022/04/22 10:49:37;;;;;;;8.82;4.15;;;13.70;99.90;;;;;;5079776;28;20047;-61
2022/04/22 10:52:09;;;;;;;10.00;4.10;;;;;;;;;;5089091;28;20055;-61
2022/04/22 10:54:53;;;;;;;8.55;4.93;;;14.00;99.90;;;;;;5082329;28;20199;-61
2022/04/22 10:57:29;;;;;;;7.50;4.57;;;14.10;99.90;;;;;;5089614;28;20100;-61
2022/04/22 11:00:27;;;;;;;11.57;4.05;;;13.80;99.90;;;;;;5088635;28;20051;-61
2022/04/22 11:03:02;;;;;;;8.57;3.55;;;14.00;99.90;;;;;;5076532;28;20131;-62
2022/04/22 11:05:30;;;;;;;8.35;3.80;;;;;;;;;;5090071;28;20044;-61
2022/04/22 11:07:57;;;;;;;8.60;3.70;;;13.70;99.90;;;;;;5090176;28;20126;-62
2022/04/22 11:10:51;;;;;;;8.88;4.13;;;14.20;99.90;;;;;;5087251;28;20040;-61
2022/04/22 11:13:41;;;;;;;7.50;4.15;;;14.50;99.90;;;;;;5084320;28;20047;-62
2022/04/22 11:16:07;;;;;;;9.00;3.63;;;;;;;;;;5078829;28;20050;-61
2022/04/22 11:18:34;;;;;;;11.93;4.45;;;14.10;99.90;;;;;;5085775;28;20118;-62
2022/04/22 11:21:05;;;;;;;9.07;3.90;;;14.40;99.90;;;;;;5085248;28;20052;-62
2022/04/22 11:23:44;;;;;;;9.48;3.72;;;14.70;99.90;;;;;;5068187;28;20443;-62
2022/04/22 11:26:13;;;;;;;10.80;4.22;;;14.30;99.90;;;;;;5086293;28;20040;-62
2022/04/22 11:28:40;;;;;;;7.65;3.60;;;14.60;99.90;;;;;;5089150;28;20032;-62
2022/04/22 11:31:08;;;;;;;10.70;4.78;;;15.10;99.90;;;;;;5086843;28;20503;-62
2022/04/22 11:34:02;;;;;;;9.52;4.22;;;14.70;99.90;;;;;;5085655;28;20044;-62
2022/04/22 11:36:28;;;;;;;9.73;4.77;;;14.60;99.90;;;;;;5098625;28;20088;-62
2022/04/22 11:38:55;;;;;;;8.68;4.95;;;14.50;99.90;;;;;;5105012;28;20035;-62
2022/04/22 11:41:22;;;;;;;9.57;4.00;;;14.50;99.90;;;;;;5093176;28;20135;-62
2022/04/22 11:43:48;;;;;;;7.68;4.38;;;15.20;99.90;;;;;;5102206;28;20059;-63
2022/04/22 11:46:16;;;;;;;8.50;4.20;;;15.30;99.90;;;;;;5102352;28;20488;-63
2022/04/22 11:48:53;;;;;;;11.25;5.32;;;15.20;99.90;;;;;;5101815;28;20570;-62
2022/04/22 11:51:20;;;;;;;9.73;3.90;;;15.60;99.90;;;;;;5071361;28;20111;-62
2022/04/22 11:53:51;;;;;;;6.15;3.67;;;15.20;99.90;;;;;;5091553;28;20032;-62
2022/04/22 11:56:22;;;;;;;8.38;3.67;;;15.30;99.90;;;;;;5092972;28;20538;-62
2022/04/22 11:58:53;;;;;;;8.95;4.53;;;15.20;99.90;;;;;;5099614;28;20048;-62
2022/04/22 12:06:55;;;;;;;9.35;4.60;;;15.00;99.90;;;;;;5102598;28;20048;-62
2022/04/22 12:09:21;;;;;;;11.95;5.18;;;15.30;99.90;;;;;;5106258;28;20058;-63
2022/04/22 12:11:50;;;;;;;7.63;5.70;;;14.90;99.90;;;;;;5094223;28;20040;-62
2022/04/22 12:14:24;;;;;;;11.35;4.97;;;15.10;99.90;;;;;;5085844;28;20036;-62
2022/04/22 12:17:00;;;;;;;10.93;4.75;;;15.10;99.90;;;;;;5097729;28;20048;-63
2022/04/22 12:19:27;;;;;;;10.52;5.10;;;15.40;99.90;;;;;;5091093;28;20047;-62
2022/04/22 12:21:53;;;;;;;9.52;5.22;;;15.30;99.90;;;;;;5106979;28;20051;-63
2022/04/22 12:24:19;;;;;;;9.60;5.32;;;15.40;99.90;;;;;;5094667;28;20485;-63
2022/04/22 12:26:45;;;;;;;7.65;5.05;;;16.70;99.90;;;;;;5092382;28;20078;-63
2022/04/22 12:29:14;;;;;;;10.07;5.13;;;15.60;99.90;;;;;;5104966;28;20045;-63
2022/04/22 12:31:40;;;;;;;10.27;4.40;;;15.90;99.90;;;;;;5104574;28;20024;-62
2022/04/22 12:34:08;;;;;;;9.32;4.47;;;15.80;99.90;;;;;;5095385;28;20040;-62
2022/04/22 12:36:39;;;;;;;11.50;4.68;;;16.30;99.90;;;;;;5105115;28;20051;-62
2022/04/22 12:39:06;;;;;;;12.95;5.88;;;16.10;99.90;;;;;;5091984;28;20067;-63
2022/04/22 12:41:43;;;;;;;8.63;4.60;;;16.80;99.90;;;;;;5093222;28;20032;-62
2022/04/22 12:44:13;;;;;;;8.77;4.45;;;17.00;99.90;;;;;;5099051;28;20215;-63
2022/04/22 12:52:16;;;;;;;9.15;5.00;;;15.50;99.90;;;;;;5079428;28;20044;-62
2022/04/22 12:54:45;;;;;;;7.93;4.65;;;15.90;99.90;;;;;;5092808;28;20492;-63
2022/04/22 12:57:23;;;;;;;9.90;4.93;;;15.90;99.90;;;;;;5094619;28;20082;-63
2022/04/22 12:59:54;;;;;;;8.60;5.10;;;16.00;99.90;;;;;;5093580;28;20083;-63
2022/04/22 13:02:32;;;;;;;8.75;5.13;;;16.00;99.90;;;;;;5093997;28;20400;-63
2022/04/22 13:05:06;;;;;;;10.93;4.72;;;16.10;99.90;;;;;;5093753;28;20040;-62
2022/04/22 13:07:45;;;;;;;10.10;5.57;;;16.20;99.90;;;;;;5092540;28;20050;-63
2022/04/22 13:10:15;;;;;;;10.32;5.75;;;16.20;99.90;;;;;;5092627;28;20052;-62
2022/04/22 13:12:42;;;;;;;10.18;5.18;;;16.10;99.90;;;;;;5093237;28;20036;-63
2022/04/22 13:15:09;;;;;;;10.25;5.50;;;16.70;99.90;;;;;;5093571;28;20044;-63
2022/04/22 13:17:43;;;;;;;7.38;4.47;;;16.30;99.90;;;;;;5093546;28;20070;-63
2022/04/22 13:20:10;;;;;;;11.02;5.35;;;17.20;99.90;;;;;;5094801;28;20048;-63
2022/04/22 13:22:36;;;;;;;13.52;5.13;;;16.50;99.90;;;;;;5092609;28;20097;-62
2022/04/22 13:25:03;;;;;;;11.60;5.25;;;16.10;99.90;;;;;;5088864;28;20037;-63
2022/04/22 13:27:29;;;;;;;10.18;5.20;;;16.50;99.90;;;;;;5094606;28;20400;-62
2022/04/22 13:29:55;;;;;;;10.43;5.18;;;16.60;99.90;;;;;;5110700;28;20036;-63
2022/04/22 13:32:20;;;;;;;9.98;5.88;;;16.40;99.90;;;;;;5093851;28;20388;-63
2022/04/22 13:34:46;;;;;;;10.77;5.60;;;16.30;99.90;;;;;;5094299;28;20538;-63
2022/04/22 13:37:12;;;;;;;10.88;5.35;;;16.60;99.90;;;;;;5104773;28;20047;-63
2022/04/22 13:39:38;;;;;;;9.90;5.72;;;16.10;99.90;;;;;;5098791;28;20032;-63
2022/04/22 13:42:04;;;;;;;15.02;6.07;;;16.30;99.90;;;;;;5092590;28;20044;-62
2022/04/22 13:52:56;;;;;;;10.77;5.47;;;;;;;;;;5072065;28;20048;-63
2022/04/22 13:55:22;;;;;;;10.07;5.75;;;16.70;99.90;;;;;;5072386;28;20049;-63
2022/04/22 13:57:48;;;;;;;10.20;5.45;;;17.50;99.90;;;;;;5073945;28;20047;-63
2022/04/22 14:00:15;;;;;;;9.15;6.28;;;17.40;99.90;;;;;;5088116;28;20055;-63
2022/04/22 14:02:43;;;;;;;9.95;5.38;;;17.00;99.90;;;;;;5076043;28;20374;-63
2022/04/22 14:05:09;;;;;;;11.55;5.95;;;17.50;99.90;;;;;;5093040;28;20123;-64
2022/04/22 14:07:35;;;;;;;10.77;5.25;;;17.80;99.90;;;;;;5091511;28;20050;-63
2022/04/22 14:10:00;;;;;;;9.70;5.78;;;16.80;99.90;;;;;;5091662;28;20390;-63
2022/04/22 14:12:26;;;;;;;15.00;6.38;;;16.60;99.90;;;;;;5098969;28;20806;-61
2022/04/22 14:14:52;;;;;;;10.98;5.88;;;16.40;99.90;;;;;;5104218;28;20040;-61
2022/04/22 14:17:19;;;;;;;10.02;6.40;;;16.80;99.90;;;;;;5074348;28;20051;-62
2022/04/22 14:19:45;;;;;;;10.30;5.43;;;16.60;99.90;;;;;;5092939;28;20075;-62
2022/04/22 14:22:11;;;;;;;8.88;5.75;;;16.90;99.90;;;;;;5102078;28;20047;-62
2022/04/22 14:24:38;;;;;;;12.32;6.80;;;17.20;99.90;;;;;;5097756;28;20044;-62
2022/04/22 14:27:06;;;;;;;10.23;6.53;;;16.80;99.90;;;;;;5099748;28;20036;-62
2022/04/22 14:29:33;;;;;;;9.68;5.55;;;17.00;99.90;;;;;;5102025;28;20132;-62
2022/04/22 14:31:59;;;;;;;12.60;7.47;;;17.70;99.90;;;;;;5096276;28;20059;-62
2022/04/22 14:34:25;;;;;;;12.10;6.10;;;17.10;99.90;;;;;;5087621;28;20097;-62
2022/04/22 14:36:52;;;;;;;14.20;6.38;;;17.00;99.90;;;;;;5092700;28;20036;-62
2022/04/22 14:39:18;;;;;;;10.13;6.13;;;17.90;99.90;;;;;;5102172;28;20043;-62
2022/04/22 14:41:45;;;;;;;10.43;6.05;;;17.10;99.90;;;;;;5088136;28;20044;-62
2022/04/22 14:44:15;;;;;;;12.40;6.53;;;;;;;;;;5101085;28;20480;-62